OIIK  Qazvin  Airport

Qazvin, Iran

Add Bookmark
ICAO OIIK
Type Airport
Status Operational
Latitude
36° 14' 24" N
36.240101
Longitude
50° 2' 49" E
50.047100
Local (GMT +4.5 ) UTC
May 28, 2016 10:27 am May 28, 2016 05:57
Sunrise-Sunset Local UTC
Begin Civil Twilight 05:23 am 00:53
Sunrise 05:53 am 01:23
Sunset 08:20 pm 15:50
End Civil Twilight 08:50 pm 16:20
VFR
VFR
MVFR
MVFR
IFR
IFR
LIFR
LIFR
Unknown
Unavailable

Current Weather

METAR Observed VFR
OIIK 280500Z 11004KT CAVOK 24/08 Q1017 Sat, May 28, 2016 @ 05:00 UTC
(57 Minutes ago)
Visual Flight Rules
Wind Visibility Conditions
110° at 4 knots (7 kph) 10 km or more
  • No significant weather
Temperatures Readings Precipitation
Current Temp
24°C
75°F
Dewpoint
8°C
46°F
Humidity 36%
Altimeter 30.03" Hg
Sea Level Pressure 1,017 mb
Field Elevation
1,278 m
4,193 ft
None Recorded

Additional weather within a 92.6km radius of OIIK

Map ICAO Location
OIIP 87km SE (126°)
VFR
VFR
MVFR
MVFR
IFR
IFR
LIFR
LIFR
Unknown
Unavailable
-
-

CheckWX.com is intended as a tool to help pilots better visualize weather data. It is not intended as a substitute for an official weather briefing obtained from a Flight Service Station. CheckWX.com does not meet the FAA requirements for an official pre-flight weather briefing. Therefore, it's important that pilots still call and obtain an official FSS pre-flight weather briefing.

© 2007-2016 CheckWX.com
05:57:45 UTC